sensor_id;sensor_type;location;lat;lon;timestamp;P1;durP1;ratioP1;P2;durP2;ratioP2
10920;SDS011;5513;50.580;8.818;2022-12-18T00:00:25;26.30;;;13.53;;
10920;SDS011;5513;50.580;8.818;2022-12-18T00:02:55;28.97;;;13.13;;
10920;SDS011;5513;50.580;8.818;2022-12-18T00:05:27;26.57;;;13.00;;
10920;SDS011;5513;50.580;8.818;2022-12-18T00:08:00;24.00;;;12.13;;
10920;SDS011;5513;50.580;8.818;2022-12-18T00:10:34;28.40;;;14.70;;
10920;SDS011;5513;50.580;8.818;2022-12-18T00:13:03;33.30;;;14.70;;
10920;SDS011;5513;50.580;8.818;2022-12-18T00:15:37;30.37;;;14.13;;
10920;SDS011;5513;50.580;8.818;2022-12-18T00:18:08;29.30;;;13.63;;
10920;SDS011;5513;50.580;8.818;2022-12-18T00:20:46;32.60;;;14.97;;
10920;SDS011;5513;50.580;8.818;2022-12-18T00:23:14;35.10;;;15.43;;
10920;SDS011;5513;50.580;8.818;2022-12-18T00:25:42;33.97;;;14.57;;
10920;SDS011;5513;50.580;8.818;2022-12-18T00:28:11;33.60;;;15.50;;
10920;SDS011;5513;50.580;8.818;2022-12-18T00:30:39;32.47;;;15.33;;
10920;SDS011;5513;50.580;8.818;2022-12-18T00:33:08;32.67;;;13.87;;
10920;SDS011;5513;50.580;8.818;2022-12-18T00:35:36;27.73;;;13.00;;
10920;SDS011;5513;50.580;8.818;2022-12-18T00:38:06;27.57;;;13.90;;
10920;SDS011;5513;50.580;8.818;2022-12-18T00:40:35;26.27;;;12.57;;
10920;SDS011;5513;50.580;8.818;2022-12-18T00:43:03;26.40;;;12.10;;
10920;SDS011;5513;50.580;8.818;2022-12-18T00:45:32;26.50;;;13.13;;
10920;SDS011;5513;50.580;8.818;2022-12-18T00:48:01;24.77;;;12.20;;
10920;SDS011;5513;50.580;8.818;2022-12-18T00:50:30;23.50;;;11.60;;
10920;SDS011;5513;50.580;8.818;2022-12-18T00:53:00;25.97;;;12.13;;
10920;SDS011;5513;50.580;8.818;2022-12-18T00:55:29;28.27;;;12.10;;
10920;SDS011;5513;50.580;8.818;2022-12-18T00:57:58;25.83;;;11.93;;
10920;SDS011;5513;50.580;8.818;2022-12-18T01:00:27;26.87;;;13.20;;
10920;SDS011;5513;50.580;8.818;2022-12-18T01:02:55;28.90;;;13.03;;
10920;SDS011;5513;50.580;8.818;2022-12-18T01:05:24;22.43;;;10.97;;
10920;SDS011;5513;50.580;8.818;2022-12-18T01:07:54;28.73;;;13.00;;
10920;SDS011;5513;50.580;8.818;2022-12-18T01:10:23;24.13;;;11.37;;
10920;SDS011;5513;50.580;8.818;2022-12-18T01:12:55;22.20;;;10.67;;
10920;SDS011;5513;50.580;8.818;2022-12-18T01:15:23;22.40;;;11.60;;
10920;SDS011;5513;50.580;8.818;2022-12-18T01:17:52;25.77;;;12.33;;
10920;SDS011;5513;50.580;8.818;2022-12-18T01:20:21;25.00;;;11.17;;
10920;SDS011;5513;50.580;8.818;2022-12-18T01:22:50;24.90;;;11.83;;
10920;SDS011;5513;50.580;8.818;2022-12-18T01:25:18;25.93;;;11.87;;
10920;SDS011;5513;50.580;8.818;2022-12-18T01:27:48;27.90;;;12.63;;
10920;SDS011;5513;50.580;8.818;2022-12-18T01:30:21;33.57;;;12.27;;
10920;SDS011;5513;50.580;8.818;2022-12-18T01:32:49;25.50;;;11.63;;
10920;SDS011;5513;50.580;8.818;2022-12-18T01:35:19;26.43;;;11.60;;
10920;SDS011;5513;50.580;8.818;2022-12-18T01:37:48;24.57;;;12.00;;
10920;SDS011;5513;50.580;8.818;2022-12-18T01:40:16;24.27;;;11.67;;
10920;SDS011;5513;50.580;8.818;2022-12-18T01:42:45;30.83;;;12.70;;
10920;SDS011;5513;50.580;8.818;2022-12-18T01:45:24;29.30;;;13.90;;
10920;SDS011;5513;50.580;8.818;2022-12-18T01:47:55;29.93;;;13.70;;
10920;SDS011;5513;50.580;8.818;2022-12-18T01:50:28;27.07;;;11.73;;
10920;SDS011;5513;50.580;8.818;2022-12-18T01:53:03;27.40;;;11.90;;
10920;SDS011;5513;50.580;8.818;2022-12-18T01:55:39;23.80;;;10.80;;
10920;SDS011;5513;50.580;8.818;2022-12-18T01:58:19;25.23;;;11.17;;
10920;SDS011;5513;50.580;8.818;2022-12-18T02:00:53;23.87;;;10.43;;
10920;SDS011;5513;50.580;8.818;2022-12-18T02:03:22;22.77;;;10.83;;
10920;SDS011;5513;50.580;8.818;2022-12-18T02:05:56;22.00;;;11.13;;
10920;SDS011;5513;50.580;8.818;2022-12-18T02:08:32;26.30;;;11.63;;
10920;SDS011;5513;50.580;8.818;2022-12-18T02:11:06;28.00;;;11.93;;
10920;SDS011;5513;50.580;8.818;2022-12-18T02:13:43;24.87;;;11.10;;
10920;SDS011;5513;50.580;8.818;2022-12-18T02:16:21;27.53;;;13.00;;
10920;SDS011;5513;50.580;8.818;2022-12-18T02:22:26;24.40;;;11.33;;
10920;SDS011;5513;50.580;8.818;2022-12-18T02:25:28;27.00;;;13.00;;
10920;SDS011;5513;50.580;8.818;2022-12-18T02:28:17;24.17;;;11.97;;
10920;SDS011;5513;50.580;8.818;2022-12-18T02:30:49;27.07;;;12.13;;
10920;SDS011;5513;50.580;8.818;2022-12-18T02:33:20;23.43;;;11.93;;
10920;SDS011;5513;50.580;8.818;2022-12-18T02:35:51;22.70;;;10.90;;
10920;SDS011;5513;50.580;8.818;2022-12-18T02:38:22;22.53;;;9.97;;
10920;SDS011;5513;50.580;8.818;2022-12-18T02:40:53;23.37;;;10.93;;
10920;SDS011;5513;50.580;8.818;2022-12-18T02:43:24;26.03;;;12.57;;
10920;SDS011;5513;50.580;8.818;2022-12-18T02:45:53;24.70;;;11.10;;
10920;SDS011;5513;50.580;8.818;2022-12-18T02:48:27;21.57;;;10.37;;
10920;SDS011;5513;50.580;8.818;2022-12-18T02:51:03;24.77;;;11.90;;
10920;SDS011;5513;50.580;8.818;2022-12-18T02:53:45;24.83;;;10.73;;
10920;SDS011;5513;50.580;8.818;2022-12-18T02:56:20;21.07;;;10.97;;
10920;SDS011;5513;50.580;8.818;2022-12-18T02:58:58;21.93;;;10.07;;
10920;SDS011;5513;50.580;8.818;2022-12-18T03:01:30;24.87;;;10.70;;
10920;SDS011;5513;50.580;8.818;2022-12-18T03:04:08;22.40;;;10.03;;
10920;SDS011;5513;50.580;8.818;2022-12-18T03:06:46;16.77;;;9.30;;
10920;SDS011;5513;50.580;8.818;2022-12-18T03:09:20;16.57;;;8.30;;
10920;SDS011;5513;50.580;8.818;2022-12-18T03:11:53;22.53;;;10.20;;
10920;SDS011;5513;50.580;8.818;2022-12-18T03:15:00;19.67;;;9.40;;
10920;SDS011;5513;50.580;8.818;2022-12-18T03:17:33;19.27;;;9.07;;
10920;SDS011;5513;50.580;8.818;2022-12-18T03:20:04;18.93;;;8.77;;
10920;SDS011;5513;50.580;8.818;2022-12-18T03:22:37;19.17;;;9.33;;
10920;SDS011;5513;50.580;8.818;2022-12-18T03:25:09;22.07;;;9.63;;
10920;SDS011;5513;50.580;8.818;2022-12-18T03:27:42;25.30;;;10.37;;
10920;SDS011;5513;50.580;8.818;2022-12-18T03:30:16;25.20;;;10.63;;
10920;SDS011;5513;50.580;8.818;2022-12-18T03:32:50;21.77;;;10.50;;
10920;SDS011;5513;50.580;8.818;2022-12-18T03:35:26;23.03;;;10.50;;
10920;SDS011;5513;50.580;8.818;2022-12-18T03:38:01;19.10;;;9.37;;
10920;SDS011;5513;50.580;8.818;2022-12-18T03:40:34;21.00;;;9.40;;
10920;SDS011;5513;50.580;8.818;2022-12-18T03:43:10;17.87;;;7.90;;
10920;SDS011;5513;50.580;8.818;2022-12-18T03:45:48;16.17;;;7.90;;
10920;SDS011;5513;50.580;8.818;2022-12-18T03:48:23;17.43;;;7.97;;
10920;SDS011;5513;50.580;8.818;2022-12-18T03:50:57;17.40;;;7.80;;
10920;SDS011;5513;50.580;8.818;2022-12-18T03:53:35;20.70;;;9.03;;
10920;SDS011;5513;50.580;8.818;2022-12-18T03:56:10;17.03;;;8.33;;
10920;SDS011;5513;50.580;8.818;2022-12-18T03:58:41;17.90;;;9.27;;
10920;SDS011;5513;50.580;8.818;2022-12-18T04:01:13;23.23;;;9.57;;
10920;SDS011;5513;50.580;8.818;2022-12-18T04:03:46;19.13;;;9.70;;
10920;SDS011;5513;50.580;8.818;2022-12-18T04:06:17;19.60;;;9.40;;
10920;SDS011;5513;50.580;8.818;2022-12-18T04:08:45;19.87;;;9.27;;
10920;SDS011;5513;50.580;8.818;2022-12-18T04:11:15;20.67;;;9.53;;
10920;SDS011;5513;50.580;8.818;2022-12-18T04:13:46;20.73;;;9.87;;
10920;SDS011;5513;50.580;8.818;2022-12-18T04:16:16;18.67;;;9.27;;
10920;SDS011;5513;50.580;8.818;2022-12-18T04:18:45;17.47;;;8.77;;
10920;SDS011;5513;50.580;8.818;2022-12-18T04:21:14;23.03;;;10.00;;
10920;SDS011;5513;50.580;8.818;2022-12-18T04:23:42;19.30;;;9.47;;
10920;SDS011;5513;50.580;8.818;2022-12-18T04:26:11;19.17;;;9.73;;
10920;SDS011;5513;50.580;8.818;2022-12-18T04:28:40;22.43;;;10.67;;
10920;SDS011;5513;50.580;8.818;2022-12-18T04:31:10;27.67;;;10.80;;
10920;SDS011;5513;50.580;8.818;2022-12-18T04:33:45;24.53;;;10.53;;
10920;SDS011;5513;50.580;8.818;2022-12-18T04:36:13;20.10;;;9.73;;
10920;SDS011;5513;50.580;8.818;2022-12-18T04:38:43;22.57;;;10.40;;
10920;SDS011;5513;50.580;8.818;2022-12-18T04:41:14;24.53;;;11.23;;
10920;SDS011;5513;50.580;8.818;2022-12-18T04:43:43;21.47;;;10.27;;
10920;SDS011;5513;50.580;8.818;2022-12-18T04:46:12;20.73;;;10.47;;
10920;SDS011;5513;50.580;8.818;2022-12-18T04:48:44;26.47;;;11.83;;
10920;SDS011;5513;50.580;8.818;2022-12-18T04:51:13;23.73;;;11.03;;
10920;SDS011;5513;50.580;8.818;2022-12-18T04:53:42;20.83;;;10.43;;
10920;SDS011;5513;50.580;8.818;2022-12-18T04:56:11;18.97;;;9.63;;
10920;SDS011;5513;50.580;8.818;2022-12-18T04:58:41;16.50;;;8.23;;
10920;SDS011;5513;50.580;8.818;2022-12-18T05:01:12;18.03;;;8.63;;
10920;SDS011;5513;50.580;8.818;2022-12-18T05:03:41;20.47;;;8.27;;
10920;SDS011;5513;50.580;8.818;2022-12-18T05:06:12;17.93;;;8.40;;
10920;SDS011;5513;50.580;8.818;2022-12-18T05:08:41;17.07;;;7.97;;
10920;SDS011;5513;50.580;8.818;2022-12-18T05:11:10;18.77;;;7.90;;
10920;SDS011;5513;50.580;8.818;2022-12-18T05:13:40;15.53;;;7.90;;
10920;SDS011;5513;50.580;8.818;2022-12-18T05:16:12;17.87;;;8.97;;
10920;SDS011;5513;50.580;8.818;2022-12-18T05:18:41;18.10;;;8.10;;
10920;SDS011;5513;50.580;8.818;2022-12-18T05:21:11;16.53;;;8.37;;
10920;SDS011;5513;50.580;8.818;2022-12-18T05:23:40;20.47;;;9.73;;
10920;SDS011;5513;50.580;8.818;2022-12-18T05:26:16;17.57;;;8.17;;
10920;SDS011;5513;50.580;8.818;2022-12-18T05:28:45;17.73;;;8.93;;
10920;SDS011;5513;50.580;8.818;2022-12-18T05:31:14;20.10;;;8.60;;
10920;SDS011;5513;50.580;8.818;2022-12-18T05:33:43;16.50;;;8.23;;
10920;SDS011;5513;50.580;8.818;2022-12-18T05:36:15;14.43;;;8.17;;
10920;SDS011;5513;50.580;8.818;2022-12-18T05:38:45;18.03;;;8.17;;
10920;SDS011;5513;50.580;8.818;2022-12-18T05:41:13;16.60;;;8.40;;
10920;SDS011;5513;50.580;8.818;2022-12-18T05:43:42;17.43;;;8.07;;
10920;SDS011;5513;50.580;8.818;2022-12-18T05:46:12;16.70;;;7.97;;
10920;SDS011;5513;50.580;8.818;2022-12-18T05:48:43;17.73;;;8.77;;
10920;SDS011;5513;50.580;8.818;2022-12-18T05:51:16;17.67;;;8.30;;
10920;SDS011;5513;50.580;8.818;2022-12-18T05:53:49;18.83;;;8.40;;
10920;SDS011;5513;50.580;8.818;2022-12-18T05:56:22;16.07;;;7.73;;
10920;SDS011;5513;50.580;8.818;2022-12-18T05:58:51;16.37;;;7.80;;
10920;SDS011;5513;50.580;8.818;2022-12-18T06:01:21;15.07;;;8.17;;
10920;SDS011;5513;50.580;8.818;2022-12-18T06:03:51;14.83;;;8.10;;
10920;SDS011;5513;50.580;8.818;2022-12-18T06:06:23;13.07;;;7.20;;
10920;SDS011;5513;50.580;8.818;2022-12-18T06:08:52;17.27;;;8.40;;
10920;SDS011;5513;50.580;8.818;2022-12-18T06:11:22;17.43;;;8.33;;
10920;SDS011;5513;50.580;8.818;2022-12-18T06:13:53;17.20;;;7.97;;
10920;SDS011;5513;50.580;8.818;2022-12-18T06:16:25;16.07;;;7.77;;
10920;SDS011;5513;50.580;8.818;2022-12-18T06:18:55;14.37;;;8.00;;
10920;SDS011;5513;50.580;8.818;2022-12-18T06:21:26;18.47;;;8.47;;
10920;SDS011;5513;50.580;8.818;2022-12-18T06:23:59;16.33;;;8.47;;
10920;SDS011;5513;50.580;8.818;2022-12-18T06:26:28;17.27;;;8.00;;
10920;SDS011;5513;50.580;8.818;2022-12-18T06:28:56;16.70;;;8.47;;
10920;SDS011;5513;50.580;8.818;2022-12-18T06:31:24;22.33;;;9.70;;
10920;SDS011;5513;50.580;8.818;2022-12-18T06:33:54;16.70;;;8.17;;
10920;SDS011;5513;50.580;8.818;2022-12-18T06:36:22;19.63;;;8.97;;
10920;SDS011;5513;50.580;8.818;2022-12-18T06:38:52;18.60;;;8.83;;
10920;SDS011;5513;50.580;8.818;2022-12-18T06:41:24;16.43;;;8.07;;
10920;SDS011;5513;50.580;8.818;2022-12-18T06:43:53;17.30;;;8.27;;
10920;SDS011;5513;50.580;8.818;2022-12-18T06:46:25;18.63;;;8.93;;
10920;SDS011;5513;50.580;8.818;2022-12-18T06:48:54;18.80;;;8.23;;
10920;SDS011;5513;50.580;8.818;2022-12-18T06:51:23;16.70;;;7.70;;
10920;SDS011;5513;50.580;8.818;2022-12-18T06:53:54;20.33;;;8.57;;
10920;SDS011;5513;50.580;8.818;2022-12-18T06:56:23;16.30;;;8.40;;
10920;SDS011;5513;50.580;8.818;2022-12-18T06:58:52;16.53;;;8.17;;
10920;SDS011;5513;50.580;8.818;2022-12-18T07:01:20;19.27;;;9.43;;
10920;SDS011;5513;50.580;8.818;2022-12-18T07:03:51;18.07;;;8.77;;
10920;SDS011;5513;50.580;8.818;2022-12-18T07:06:22;17.47;;;8.93;;
10920;SDS011;5513;50.580;8.818;2022-12-18T07:08:54;18.57;;;8.70;;
10920;SDS011;5513;50.580;8.818;2022-12-18T07:11:24;14.57;;;8.23;;
10920;SDS011;5513;50.580;8.818;2022-12-18T07:13:52;16.57;;;8.33;;
10920;SDS011;5513;50.580;8.818;2022-12-18T07:16:23;21.20;;;9.37;;
10920;SDS011;5513;50.580;8.818;2022-12-18T07:18:52;17.60;;;8.23;;
10920;SDS011;5513;50.580;8.818;2022-12-18T07:21:21;18.80;;;8.83;;
10920;SDS011;5513;50.580;8.818;2022-12-18T07:23:51;17.27;;;8.80;;
10920;SDS011;5513;50.580;8.818;2022-12-18T07:26:24;20.57;;;9.00;;
10920;SDS011;5513;50.580;8.818;2022-12-18T07:28:54;18.97;;;9.00;;
10920;SDS011;5513;50.580;8.818;2022-12-18T07:31:24;17.40;;;8.07;;
10920;SDS011;5513;50.580;8.818;2022-12-18T07:33:53;16.30;;;7.93;;
10920;SDS011;5513;50.580;8.818;2022-12-18T07:36:21;15.23;;;7.53;;
10920;SDS011;5513;50.580;8.818;2022-12-18T07:38:52;15.80;;;7.20;;
10920;SDS011;5513;50.580;8.818;2022-12-18T07:41:25;16.57;;;8.80;;
10920;SDS011;5513;50.580;8.818;2022-12-18T07:43:54;19.57;;;8.53;;
10920;SDS011;5513;50.580;8.818;2022-12-18T07:46:25;14.70;;;8.03;;
10920;SDS011;5513;50.580;8.818;2022-12-18T07:48:53;16.77;;;8.33;;
10920;SDS011;5513;50.580;8.818;2022-12-18T07:51:21;16.23;;;8.43;;
10920;SDS011;5513;50.580;8.818;2022-12-18T07:53:50;16.93;;;9.13;;
10920;SDS011;5513;50.580;8.818;2022-12-18T07:56:19;19.40;;;9.57;;
10920;SDS011;5513;50.580;8.818;2022-12-18T07:58:56;100.40;;;43.93;;
10920;SDS011;5513;50.580;8.818;2022-12-18T08:01:26;45.83;;;22.70;;
10920;SDS011;5513;50.580;8.818;2022-12-18T08:03:57;21.60;;;10.60;;
10920;SDS011;5513;50.580;8.818;2022-12-18T08:06:26;18.50;;;9.80;;
10920;SDS011;5513;50.580;8.818;2022-12-18T08:08:54;18.47;;;9.20;;
10920;SDS011;5513;50.580;8.818;2022-12-18T08:11:26;31.07;;;15.00;;
10920;SDS011;5513;50.580;8.818;2022-12-18T08:13:57;30.50;;;15.87;;
10920;SDS011;5513;50.580;8.818;2022-12-18T08:16:28;19.73;;;9.30;;
10920;SDS011;5513;50.580;8.818;2022-12-18T08:18:57;38.23;;;15.67;;
10920;SDS011;5513;50.580;8.818;2022-12-18T08:21:26;56.97;;;23.27;;
10920;SDS011;5513;50.580;8.818;2022-12-18T08:23:57;47.83;;;21.33;;
10920;SDS011;5513;50.580;8.818;2022-12-18T08:26:27;37.80;;;17.90;;
10920;SDS011;5513;50.580;8.818;2022-12-18T08:29:01;31.03;;;16.43;;
10920;SDS011;5513;50.580;8.818;2022-12-18T08:31:30;27.67;;;13.37;;
10920;SDS011;5513;50.580;8.818;2022-12-18T08:33:59;26.60;;;12.40;;
10920;SDS011;5513;50.580;8.818;2022-12-18T08:36:28;23.63;;;12.23;;
10920;SDS011;5513;50.580;8.818;2022-12-18T08:38:57;20.73;;;11.67;;
10920;SDS011;5513;50.580;8.818;2022-12-18T08:41:26;22.87;;;12.50;;
10920;SDS011;5513;50.580;8.818;2022-12-18T08:43:55;22.47;;;11.97;;
10920;SDS011;5513;50.580;8.818;2022-12-18T08:46:42;20.93;;;11.37;;
10920;SDS011;5513;50.580;8.818;2022-12-18T08:49:12;28.27;;;12.30;;
10920;SDS011;5513;50.580;8.818;2022-12-18T08:51:41;22.93;;;11.07;;
10920;SDS011;5513;50.580;8.818;2022-12-18T08:54:10;116.40;;;54.27;;
10920;SDS011;5513;50.580;8.818;2022-12-18T08:56:40;144.20;;;73.43;;
10920;SDS011;5513;50.580;8.818;2022-12-18T08:59:10;95.77;;;49.53;;
10920;SDS011;5513;50.580;8.818;2022-12-18T09:01:48;54.93;;;32.20;;
10920;SDS011;5513;50.580;8.818;2022-12-18T09:04:16;32.77;;;20.50;;
10920;SDS011;5513;50.580;8.818;2022-12-18T09:06:47;25.43;;;14.00;;
10920;SDS011;5513;50.580;8.818;2022-12-18T09:09:16;23.53;;;13.37;;
10920;SDS011;5513;50.580;8.818;2022-12-18T09:11:46;23.47;;;13.50;;
10920;SDS011;5513;50.580;8.818;2022-12-18T09:14:15;31.20;;;16.63;;
10920;SDS011;5513;50.580;8.818;2022-12-18T09:16:43;30.43;;;17.47;;
10920;SDS011;5513;50.580;8.818;2022-12-18T09:19:17;35.43;;;18.73;;
10920;SDS011;5513;50.580;8.818;2022-12-18T09:21:45;32.50;;;18.40;;
10920;SDS011;5513;50.580;8.818;2022-12-18T09:24:14;25.50;;;14.00;;
10920;SDS011;5513;50.580;8.818;2022-12-18T09:26:44;28.77;;;14.53;;
10920;SDS011;5513;50.580;8.818;2022-12-18T09:29:13;28.23;;;14.47;;
10920;SDS011;5513;50.580;8.818;2022-12-18T09:31:44;30.70;;;16.30;;
10920;SDS011;5513;50.580;8.818;2022-12-18T09:34:19;34.10;;;18.00;;
10920;SDS011;5513;50.580;8.818;2022-12-18T09:36:49;38.67;;;20.90;;
10920;SDS011;5513;50.580;8.818;2022-12-18T09:39:17;33.17;;;18.83;;
10920;SDS011;5513;50.580;8.818;2022-12-18T09:41:50;28.93;;;14.90;;
10920;SDS011;5513;50.580;8.818;2022-12-18T09:44:22;28.80;;;15.03;;
10920;SDS011;5513;50.580;8.818;2022-12-18T09:46:58;28.37;;;15.90;;
10920;SDS011;5513;50.580;8.818;2022-12-18T09:49:34;30.33;;;15.67;;
10920;SDS011;5513;50.580;8.818;2022-12-18T09:52:08;27.43;;;16.70;;
10920;SDS011;5513;50.580;8.818;2022-12-18T09:54:41;34.40;;;20.10;;
10920;SDS011;5513;50.580;8.818;2022-12-18T09:57:15;40.00;;;24.17;;
10920;SDS011;5513;50.580;8.818;2022-12-18T09:59:48;38.00;;;22.07;;
10920;SDS011;5513;50.580;8.818;2022-12-18T10:02:21;32.50;;;17.20;;
10920;SDS011;5513;50.580;8.818;2022-12-18T10:05:00;27.87;;;15.30;;
10920;SDS011;5513;50.580;8.818;2022-12-18T10:07:43;24.33;;;13.27;;
10920;SDS011;5513;50.580;8.818;2022-12-18T10:10:23;18.57;;;11.47;;
10920;SDS011;5513;50.580;8.818;2022-12-18T10:13:02;20.13;;;12.47;;
10920;SDS011;5513;50.580;8.818;2022-12-18T10:15:41;20.53;;;11.47;;
10920;SDS011;5513;50.580;8.818;2022-12-18T10:18:21;34.80;;;21.17;;
10920;SDS011;5513;50.580;8.818;2022-12-18T10:21:07;29.73;;;17.07;;
10920;SDS011;5513;50.580;8.818;2022-12-18T10:23:41;30.70;;;17.03;;
10920;SDS011;5513;50.580;8.818;2022-12-18T10:26:17;22.90;;;13.23;;
10920;SDS011;5513;50.580;8.818;2022-12-18T10:28:46;22.73;;;12.40;;
10920;SDS011;5513;50.580;8.818;2022-12-18T10:31:16;19.30;;;11.43;;
10920;SDS011;5513;50.580;8.818;2022-12-18T10:33:50;22.13;;;11.87;;
10920;SDS011;5513;50.580;8.818;2022-12-18T10:36:23;20.07;;;10.93;;
10920;SDS011;5513;50.580;8.818;2022-12-18T10:38:57;21.17;;;12.13;;
10920;SDS011;5513;50.580;8.818;2022-12-18T10:41:43;20.50;;;12.53;;
10920;SDS011;5513;50.580;8.818;2022-12-18T10:44:14;20.53;;;12.00;;
10920;SDS011;5513;50.580;8.818;2022-12-18T10:46:45;21.20;;;11.57;;
10920;SDS011;5513;50.580;8.818;2022-12-18T10:49:23;18.20;;;11.53;;
10920;SDS011;5513;50.580;8.818;2022-12-18T10:52:06;17.30;;;10.60;;
10920;SDS011;5513;50.580;8.818;2022-12-18T10:54:45;16.73;;;10.37;;
10920;SDS011;5513;50.580;8.818;2022-12-18T10:57:17;21.00;;;10.47;;
10920;SDS011;5513;50.580;8.818;2022-12-18T11:00:19;17.23;;;9.73;;
10920;SDS011;5513;50.580;8.818;2022-12-18T11:02:51;23.07;;;11.23;;
10920;SDS011;5513;50.580;8.818;2022-12-18T11:05:28;23.10;;;11.90;;
10920;SDS011;5513;50.580;8.818;2022-12-18T11:08:00;21.10;;;11.97;;
10920;SDS011;5513;50.580;8.818;2022-12-18T11:10:30;19.87;;;12.10;;
10920;SDS011;5513;50.580;8.818;2022-12-18T11:13:10;22.27;;;9.83;;
10920;SDS011;5513;50.580;8.818;2022-12-18T11:15:40;25.93;;;13.33;;
10920;SDS011;5513;50.580;8.818;2022-12-18T11:18:16;21.83;;;12.63;;
10920;SDS011;5513;50.580;8.818;2022-12-18T11:20:50;24.67;;;14.20;;
10920;SDS011;5513;50.580;8.818;2022-12-18T11:23:25;29.10;;;17.10;;
10920;SDS011;5513;50.580;8.818;2022-12-18T11:25:57;20.70;;;12.83;;
10920;SDS011;5513;50.580;8.818;2022-12-18T11:28:36;21.77;;;13.23;;
10920;SDS011;5513;50.580;8.818;2022-12-18T11:31:24;25.53;;;12.37;;
10920;SDS011;5513;50.580;8.818;2022-12-18T11:33:56;24.23;;;13.50;;
10920;SDS011;5513;50.580;8.818;2022-12-18T11:36:48;23.97;;;13.03;;
10920;SDS011;5513;50.580;8.818;2022-12-18T11:39:30;22.60;;;13.20;;
10920;SDS011;5513;50.580;8.818;2022-12-18T11:42:08;21.73;;;12.63;;
10920;SDS011;5513;50.580;8.818;2022-12-18T11:44:45;24.40;;;14.07;;
10920;SDS011;5513;50.580;8.818;2022-12-18T11:47:20;24.20;;;14.10;;
10920;SDS011;5513;50.580;8.818;2022-12-18T11:49:56;23.30;;;13.47;;
10920;SDS011;5513;50.580;8.818;2022-12-18T11:52:31;23.10;;;13.20;;
10920;SDS011;5513;50.580;8.818;2022-12-18T11:55:09;24.53;;;13.53;;
10920;SDS011;5513;50.580;8.818;2022-12-18T11:57:41;25.23;;;14.20;;
10920;SDS011;5513;50.580;8.818;2022-12-18T12:00:19;24.60;;;14.30;;
10920;SDS011;5513;50.580;8.818;2022-12-18T12:03:04;23.90;;;14.60;;
10920;SDS011;5513;50.580;8.818;2022-12-18T12:05:48;26.13;;;14.90;;
10920;SDS011;5513;50.580;8.818;2022-12-18T12:08:33;28.97;;;15.00;;
10920;SDS011;5513;50.580;8.818;2022-12-18T12:11:13;27.70;;;15.40;;
10920;SDS011;5513;50.580;8.818;2022-12-18T12:13:52;28.07;;;16.63;;
10920;SDS011;5513;50.580;8.818;2022-12-18T12:16:36;28.80;;;16.63;;
10920;SDS011;5513;50.580;8.818;2022-12-18T12:19:15;31.03;;;16.90;;
10920;SDS011;5513;50.580;8.818;2022-12-18T12:21:58;30.10;;;17.23;;
10920;SDS011;5513;50.580;8.818;2022-12-18T12:24:37;35.80;;;19.37;;
10920;SDS011;5513;50.580;8.818;2022-12-18T12:27:16;29.13;;;15.97;;
10920;SDS011;5513;50.580;8.818;2022-12-18T12:29:58;32.43;;;17.80;;
10920;SDS011;5513;50.580;8.818;2022-12-18T12:32:37;32.03;;;17.57;;
10920;SDS011;5513;50.580;8.818;2022-12-18T12:35:22;34.10;;;18.23;;
10920;SDS011;5513;50.580;8.818;2022-12-18T12:38:00;32.67;;;18.10;;
10920;SDS011;5513;50.580;8.818;2022-12-18T12:40:36;33.90;;;18.03;;
10920;SDS011;5513;50.580;8.818;2022-12-18T12:43:31;33.83;;;18.43;;
10920;SDS011;5513;50.580;8.818;2022-12-18T12:46:12;30.57;;;17.13;;
10920;SDS011;5513;50.580;8.818;2022-12-18T12:48:43;32.43;;;18.20;;
10920;SDS011;5513;50.580;8.818;2022-12-18T12:51:16;33.20;;;19.00;;
10920;SDS011;5513;50.580;8.818;2022-12-18T12:53:47;36.90;;;19.30;;
10920;SDS011;5513;50.580;8.818;2022-12-18T12:56:17;36.47;;;19.70;;
10920;SDS011;5513;50.580;8.818;2022-12-18T13:01:40;41.37;;;19.43;;
10920;SDS011;5513;50.580;8.818;2022-12-18T13:04:19;35.10;;;19.33;;
10920;SDS011;5513;50.580;8.818;2022-12-18T13:06:53;37.77;;;19.83;;
10920;SDS011;5513;50.580;8.818;2022-12-18T13:09:29;36.23;;;20.83;;
10920;SDS011;5513;50.580;8.818;2022-12-18T13:12:02;34.10;;;19.37;;
10920;SDS011;5513;50.580;8.818;2022-12-18T13:14:51;42.60;;;21.50;;
10920;SDS011;5513;50.580;8.818;2022-12-18T13:17:29;39.03;;;20.70;;
10920;SDS011;5513;50.580;8.818;2022-12-18T13:20:06;36.67;;;19.97;;
10920;SDS011;5513;50.580;8.818;2022-12-18T13:22:43;38.10;;;20.13;;
10920;SDS011;5513;50.580;8.818;2022-12-18T13:25:26;33.50;;;18.20;;
10920;SDS011;5513;50.580;8.818;2022-12-18T13:28:00;37.67;;;19.07;;
10920;SDS011;5513;50.580;8.818;2022-12-18T13:30:58;37.40;;;18.93;;
10920;SDS011;5513;50.580;8.818;2022-12-18T13:36:39;34.73;;;17.80;;
10920;SDS011;5513;50.580;8.818;2022-12-18T13:39:22;35.83;;;18.33;;
10920;SDS011;5513;50.580;8.818;2022-12-18T13:45:40;34.40;;;17.57;;
10920;SDS011;5513;50.580;8.818;2022-12-18T13:51:01;36.57;;;17.80;;
10920;SDS011;5513;50.580;8.818;2022-12-18T13:53:36;33.27;;;17.07;;
10920;SDS011;5513;50.580;8.818;2022-12-18T13:56:10;29.10;;;16.43;;
10920;SDS011;5513;50.580;8.818;2022-12-18T13:58:44;47.20;;;24.20;;
10920;SDS011;5513;50.580;8.818;2022-12-18T14:01:21;42.03;;;19.60;;
10920;SDS011;5513;50.580;8.818;2022-12-18T14:03:52;35.73;;;17.60;;
10920;SDS011;5513;50.580;8.818;2022-12-18T14:06:37;36.93;;;18.17;;
10920;SDS011;5513;50.580;8.818;2022-12-18T14:09:06;36.87;;;18.13;;
10920;SDS011;5513;50.580;8.818;2022-12-18T14:11:46;37.27;;;18.03;;
10920;SDS011;5513;50.580;8.818;2022-12-18T14:14:16;35.20;;;17.70;;
10920;SDS011;5513;50.580;8.818;2022-12-18T14:16:56;35.50;;;16.90;;
10920;SDS011;5513;50.580;8.818;2022-12-18T14:19:26;33.27;;;16.80;;
10920;SDS011;5513;50.580;8.818;2022-12-18T14:21:54;37.27;;;18.07;;
10920;SDS011;5513;50.580;8.818;2022-12-18T14:24:27;34.43;;;16.73;;
10920;SDS011;5513;50.580;8.818;2022-12-18T14:26:58;32.97;;;16.70;;
10920;SDS011;5513;50.580;8.818;2022-12-18T14:29:50;34.17;;;16.90;;
10920;SDS011;5513;50.580;8.818;2022-12-18T14:32:19;34.70;;;16.00;;
10920;SDS011;5513;50.580;8.818;2022-12-18T14:34:50;36.67;;;18.73;;
10920;SDS011;5513;50.580;8.818;2022-12-18T14:37:20;36.60;;;19.00;;
10920;SDS011;5513;50.580;8.818;2022-12-18T14:39:54;36.80;;;17.77;;
10920;SDS011;5513;50.580;8.818;2022-12-18T14:42:24;36.03;;;17.73;;
10920;SDS011;5513;50.580;8.818;2022-12-18T14:48:08;35.13;;;16.87;;
10920;SDS011;5513;50.580;8.818;2022-12-18T14:50:55;35.37;;;17.40;;
10920;SDS011;5513;50.580;8.818;2022-12-18T14:53:31;39.27;;;20.27;;
10920;SDS011;5513;50.580;8.818;2022-12-18T14:56:12;35.30;;;16.13;;
10920;SDS011;5513;50.580;8.818;2022-12-18T14:58:45;34.23;;;16.07;;
10920;SDS011;5513;50.580;8.818;2022-12-18T15:01:22;31.20;;;15.20;;
10920;SDS011;5513;50.580;8.818;2022-12-18T15:03:56;36.00;;;17.13;;
10920;SDS011;5513;50.580;8.818;2022-12-18T15:06:31;33.00;;;17.27;;
10920;SDS011;5513;50.580;8.818;2022-12-18T15:09:03;35.20;;;16.70;;
10920;SDS011;5513;50.580;8.818;2022-12-18T15:11:44;35.17;;;16.37;;
10920;SDS011;5513;50.580;8.818;2022-12-18T15:14:23;32.27;;;16.07;;
10920;SDS011;5513;50.580;8.818;2022-12-18T15:17:01;37.03;;;16.87;;
10920;SDS011;5513;50.580;8.818;2022-12-18T15:19:35;32.13;;;15.27;;
10920;SDS011;5513;50.580;8.818;2022-12-18T15:22:19;32.57;;;15.07;;
10920;SDS011;5513;50.580;8.818;2022-12-18T15:24:50;29.20;;;15.13;;
10920;SDS011;5513;50.580;8.818;2022-12-18T15:27:22;34.30;;;16.17;;
10920;SDS011;5513;50.580;8.818;2022-12-18T15:30:15;32.70;;;15.83;;
10920;SDS011;5513;50.580;8.818;2022-12-18T15:32:47;34.13;;;17.27;;